sensor_id;sensor_type;location;lat;lon;timestamp;P1;durP1;ratioP1;P2;durP2;ratioP2
16391;SDS011;8305;-33.882;151.134;2023-08-21T00:00:05;3.78;;;1.10;;
16391;SDS011;8305;-33.882;151.134;2023-08-21T00:02:39;2.20;;;0.98;;
16391;SDS011;8305;-33.882;151.134;2023-08-21T00:05:10;1.88;;;0.95;;
16391;SDS011;8305;-33.882;151.134;2023-08-21T00:07:40;1.48;;;0.98;;
16391;SDS011;8305;-33.882;151.134;2023-08-21T00:10:12;4.35;;;0.90;;
16391;SDS011;8305;-33.882;151.134;2023-08-21T00:12:43;1.60;;;0.70;;
16391;SDS011;8305;-33.882;151.134;2023-08-21T00:15:16;2.88;;;1.00;;
16391;SDS011;8305;-33.882;151.134;2023-08-21T00:17:47;0.85;;;0.60;;
16391;SDS011;8305;-33.882;151.134;2023-08-21T00:20:18;1.40;;;0.80;;
16391;SDS011;8305;-33.882;151.134;2023-08-21T00:22:48;1.25;;;0.90;;
16391;SDS011;8305;-33.882;151.134;2023-08-21T00:25:20;1.98;;;0.90;;
16391;SDS011;8305;-33.882;151.134;2023-08-21T00:27:51;0.73;;;0.73;;
16391;SDS011;8305;-33.882;151.134;2023-08-21T00:30:24;1.77;;;0.70;;
16391;SDS011;8305;-33.882;151.134;2023-08-21T00:32:55;2.78;;;0.60;;
16391;SDS011;8305;-33.882;151.134;2023-08-21T00:35:25;2.90;;;0.73;;
16391;SDS011;8305;-33.882;151.134;2023-08-21T00:37:56;0.95;;;0.68;;
16391;SDS011;8305;-33.882;151.134;2023-08-21T00:40:27;1.50;;;0.70;;
16391;SDS011;8305;-33.882;151.134;2023-08-21T00:42:59;1.33;;;0.80;;
16391;SDS011;8305;-33.882;151.134;2023-08-21T00:45:32;0.65;;;0.63;;
16391;SDS011;8305;-33.882;151.134;2023-08-21T00:48:03;1.38;;;0.68;;
16391;SDS011;8305;-33.882;151.134;2023-08-21T00:50:34;1.45;;;0.50;;
16391;SDS011;8305;-33.882;151.134;2023-08-21T00:53:06;0.85;;;0.63;;
16391;SDS011;8305;-33.882;151.134;2023-08-21T00:55:37;0.80;;;0.70;;
16391;SDS011;8305;-33.882;151.134;2023-08-21T00:58:09;2.25;;;0.60;;
16391;SDS011;8305;-33.882;151.134;2023-08-21T01:00:42;1.23;;;0.60;;
16391;SDS011;8305;-33.882;151.134;2023-08-21T01:03:17;1.48;;;0.70;;
16391;SDS011;8305;-33.882;151.134;2023-08-21T01:05:48;1.75;;;0.80;;
16391;SDS011;8305;-33.882;151.134;2023-08-21T01:08:21;1.55;;;0.90;;
16391;SDS011;8305;-33.882;151.134;2023-08-21T01:10:58;3.50;;;0.75;;
16391;SDS011;8305;-33.882;151.134;2023-08-21T01:13:38;1.02;;;0.55;;
16391;SDS011;8305;-33.882;151.134;2023-08-21T01:16:19;1.08;;;0.60;;
16391;SDS011;8305;-33.882;151.134;2023-08-21T01:18:50;1.25;;;0.65;;
16391;SDS011;8305;-33.882;151.134;2023-08-21T01:21:23;2.97;;;0.80;;
16391;SDS011;8305;-33.882;151.134;2023-08-21T01:23:58;0.55;;;0.50;;
16391;SDS011;8305;-33.882;151.134;2023-08-21T01:26:29;1.27;;;0.70;;
16391;SDS011;8305;-33.882;151.134;2023-08-21T01:29:00;0.60;;;0.60;;
16391;SDS011;8305;-33.882;151.134;2023-08-21T01:31:31;1.20;;;0.80;;
16391;SDS011;8305;-33.882;151.134;2023-08-21T01:34:06;1.73;;;0.50;;
16391;SDS011;8305;-33.882;151.134;2023-08-21T01:36:40;1.80;;;0.90;;
16391;SDS011;8305;-33.882;151.134;2023-08-21T01:39:13;1.90;;;0.77;;
16391;SDS011;8305;-33.882;151.134;2023-08-21T01:41:44;1.58;;;0.70;;
16391;SDS011;8305;-33.882;151.134;2023-08-21T01:44:15;0.93;;;0.70;;
16391;SDS011;8305;-33.882;151.134;2023-08-21T01:46:45;3.97;;;0.70;;
16391;SDS011;8305;-33.882;151.134;2023-08-21T01:49:16;3.03;;;0.70;;
16391;SDS011;8305;-33.882;151.134;2023-08-21T01:51:47;2.53;;;1.15;;
16391;SDS011;8305;-33.882;151.134;2023-08-21T01:54:20;2.50;;;1.00;;
16391;SDS011;8305;-33.882;151.134;2023-08-21T01:56:50;1.38;;;0.90;;
16391;SDS011;8305;-33.882;151.134;2023-08-21T01:59:21;1.17;;;0.80;;
16391;SDS011;8305;-33.882;151.134;2023-08-21T02:01:52;2.08;;;1.00;;
16391;SDS011;8305;-33.882;151.134;2023-08-21T02:04:23;1.13;;;0.93;;
16391;SDS011;8305;-33.882;151.134;2023-08-21T02:06:54;2.00;;;1.00;;
16391;SDS011;8305;-33.882;151.134;2023-08-21T02:09:26;1.38;;;0.90;;
16391;SDS011;8305;-33.882;151.134;2023-08-21T02:11:57;1.17;;;0.73;;
16391;SDS011;8305;-33.882;151.134;2023-08-21T02:14:28;2.42;;;0.95;;
16391;SDS011;8305;-33.882;151.134;2023-08-21T02:16:59;1.70;;;0.82;;
16391;SDS011;8305;-33.882;151.134;2023-08-21T02:19:32;1.00;;;0.75;;
16391;SDS011;8305;-33.882;151.134;2023-08-21T02:22:02;1.40;;;0.80;;
16391;SDS011;8305;-33.882;151.134;2023-08-21T02:24:35;0.93;;;0.65;;
16391;SDS011;8305;-33.882;151.134;2023-08-21T02:27:06;0.73;;;0.50;;
16391;SDS011;8305;-33.882;151.134;2023-08-21T02:29:37;1.80;;;0.70;;
16391;SDS011;8305;-33.882;151.134;2023-08-21T02:32:08;1.05;;;0.60;;
16391;SDS011;8305;-33.882;151.134;2023-08-21T02:34:39;1.05;;;0.70;;
16391;SDS011;8305;-33.882;151.134;2023-08-21T02:37:09;2.85;;;0.70;;
16391;SDS011;8305;-33.882;151.134;2023-08-21T02:39:42;0.60;;;0.60;;
16391;SDS011;8305;-33.882;151.134;2023-08-21T02:42:13;2.40;;;0.70;;
16391;SDS011;8305;-33.882;151.134;2023-08-21T02:44:43;1.20;;;0.60;;
16391;SDS011;8305;-33.882;151.134;2023-08-21T02:47:14;0.93;;;0.65;;
16391;SDS011;8305;-33.882;151.134;2023-08-21T02:49:45;3.25;;;0.93;;
16391;SDS011;8305;-33.882;151.134;2023-08-21T02:52:15;4.05;;;1.27;;
16391;SDS011;8305;-33.882;151.134;2023-08-21T02:54:48;1.70;;;0.80;;
16391;SDS011;8305;-33.882;151.134;2023-08-21T02:57:19;4.00;;;1.20;;
16391;SDS011;8305;-33.882;151.134;2023-08-21T02:59:50;0.90;;;0.80;;
16391;SDS011;8305;-33.882;151.134;2023-08-21T03:02:21;1.38;;;0.70;;
16391;SDS011;8305;-33.882;151.134;2023-08-21T03:04:51;0.75;;;0.50;;
16391;SDS011;8305;-33.882;151.134;2023-08-21T03:07:22;0.90;;;0.77;;
16391;SDS011;8305;-33.882;151.134;2023-08-21T03:09:55;0.50;;;0.45;;
16391;SDS011;8305;-33.882;151.134;2023-08-21T03:12:25;0.93;;;0.60;;
16391;SDS011;8305;-33.882;151.134;2023-08-21T03:14:56;1.30;;;0.70;;
16391;SDS011;8305;-33.882;151.134;2023-08-21T03:17:27;1.02;;;0.70;;
16391;SDS011;8305;-33.882;151.134;2023-08-21T03:19:58;1.02;;;0.55;;
16391;SDS011;8305;-33.882;151.134;2023-08-21T03:22:30;0.68;;;0.68;;
16391;SDS011;8305;-33.882;151.134;2023-08-21T03:25:03;0.75;;;0.70;;
16391;SDS011;8305;-33.882;151.134;2023-08-21T03:27:34;0.80;;;0.80;;
16391;SDS011;8305;-33.882;151.134;2023-08-21T03:30:06;0.77;;;0.55;;
16391;SDS011;8305;-33.882;151.134;2023-08-21T03:32:37;2.08;;;0.50;;
16391;SDS011;8305;-33.882;151.134;2023-08-21T03:35:08;1.67;;;0.63;;
16391;SDS011;8305;-33.882;151.134;2023-08-21T03:37:39;0.73;;;0.70;;
16391;SDS011;8305;-33.882;151.134;2023-08-21T03:40:12;0.90;;;0.65;;
16391;SDS011;8305;-33.882;151.134;2023-08-21T03:42:42;1.00;;;0.60;;
16391;SDS011;8305;-33.882;151.134;2023-08-21T03:45:13;0.50;;;0.40;;
16391;SDS011;8305;-33.882;151.134;2023-08-21T03:47:44;3.10;;;0.70;;
16391;SDS011;8305;-33.882;151.134;2023-08-21T03:50:15;1.27;;;1.00;;
16391;SDS011;8305;-33.882;151.134;2023-08-21T03:52:45;0.70;;;0.70;;
16391;SDS011;8305;-33.882;151.134;2023-08-21T03:55:18;1.70;;;0.52;;
16391;SDS011;8305;-33.882;151.134;2023-08-21T03:57:49;0.90;;;0.55;;
16391;SDS011;8305;-33.882;151.134;2023-08-21T04:00:19;1.17;;;0.70;;
16391;SDS011;8305;-33.882;151.134;2023-08-21T04:02:50;1.85;;;0.70;;
16391;SDS011;8305;-33.882;151.134;2023-08-21T04:05:21;2.58;;;0.60;;
16391;SDS011;8305;-33.882;151.134;2023-08-21T04:07:52;1.08;;;0.70;;
16391;SDS011;8305;-33.882;151.134;2023-08-21T04:10:25;1.58;;;0.75;;
16391;SDS011;8305;-33.882;151.134;2023-08-21T04:12:55;1.50;;;0.70;;
16391;SDS011;8305;-33.882;151.134;2023-08-21T04:15:26;0.90;;;0.60;;
16391;SDS011;8305;-33.882;151.134;2023-08-21T04:17:57;3.65;;;0.80;;
16391;SDS011;8305;-33.882;151.134;2023-08-21T04:20:27;1.08;;;0.77;;
16391;SDS011;8305;-33.882;151.134;2023-08-21T04:22:58;0.60;;;0.60;;
16391;SDS011;8305;-33.882;151.134;2023-08-21T04:25:31;1.25;;;0.70;;
16391;SDS011;8305;-33.882;151.134;2023-08-21T04:28:01;0.85;;;0.82;;
16391;SDS011;8305;-33.882;151.134;2023-08-21T04:30:33;1.30;;;0.65;;
16391;SDS011;8305;-33.882;151.134;2023-08-21T04:33:04;2.05;;;0.82;;
16391;SDS011;8305;-33.882;151.134;2023-08-21T04:35:36;2.53;;;0.75;;
16391;SDS011;8305;-33.882;151.134;2023-08-21T04:38:07;2.75;;;1.00;;
16391;SDS011;8305;-33.882;151.134;2023-08-21T04:40:40;1.30;;;1.10;;
16391;SDS011;8305;-33.882;151.134;2023-08-21T04:43:10;2.65;;;0.73;;
16391;SDS011;8305;-33.882;151.134;2023-08-21T04:45:46;2.00;;;0.88;;
16391;SDS011;8305;-33.882;151.134;2023-08-21T04:48:19;2.55;;;1.00;;
16391;SDS011;8305;-33.882;151.134;2023-08-21T04:50:49;2.40;;;0.93;;
16391;SDS011;8305;-33.882;151.134;2023-08-21T04:53:20;1.92;;;1.10;;
16391;SDS011;8305;-33.882;151.134;2023-08-21T04:55:53;3.42;;;0.90;;
16391;SDS011;8305;-33.882;151.134;2023-08-21T04:58:23;2.45;;;0.90;;
16391;SDS011;8305;-33.882;151.134;2023-08-21T05:00:54;2.25;;;0.98;;
16391;SDS011;8305;-33.882;151.134;2023-08-21T05:03:25;2.55;;;0.93;;
16391;SDS011;8305;-33.882;151.134;2023-08-21T05:05:56;0.98;;;0.70;;
16391;SDS011;8305;-33.882;151.134;2023-08-21T05:08:27;1.98;;;0.80;;
16391;SDS011;8305;-33.882;151.134;2023-08-21T05:11:00;2.30;;;0.70;;
16391;SDS011;8305;-33.882;151.134;2023-08-21T05:13:31;1.33;;;1.00;;
16391;SDS011;8305;-33.882;151.134;2023-08-21T05:16:02;3.20;;;1.15;;
16391;SDS011;8305;-33.882;151.134;2023-08-21T05:18:32;1.70;;;1.00;;
16391;SDS011;8305;-33.882;151.134;2023-08-21T05:21:03;2.53;;;0.90;;
16391;SDS011;8305;-33.882;151.134;2023-08-21T05:23:34;1.77;;;0.90;;
16391;SDS011;8305;-33.882;151.134;2023-08-21T05:26:06;4.00;;;1.10;;
16391;SDS011;8305;-33.882;151.134;2023-08-21T05:28:37;3.10;;;1.00;;
16391;SDS011;8305;-33.882;151.134;2023-08-21T05:31:08;2.75;;;0.90;;
16391;SDS011;8305;-33.882;151.134;2023-08-21T05:33:38;1.77;;;1.00;;
16391;SDS011;8305;-33.882;151.134;2023-08-21T05:36:09;1.98;;;0.90;;
16391;SDS011;8305;-33.882;151.134;2023-08-21T05:38:40;1.02;;;0.75;;
16391;SDS011;8305;-33.882;151.134;2023-08-21T05:41:12;3.75;;;0.82;;
16391;SDS011;8305;-33.882;151.134;2023-08-21T05:43:43;2.63;;;0.88;;
16391;SDS011;8305;-33.882;151.134;2023-08-21T05:46:15;1.25;;;0.75;;
16391;SDS011;8305;-33.882;151.134;2023-08-21T05:48:45;1.35;;;0.90;;
16391;SDS011;8305;-33.882;151.134;2023-08-21T05:51:16;2.15;;;1.10;;
16391;SDS011;8305;-33.882;151.134;2023-08-21T05:53:47;3.50;;;0.90;;
16391;SDS011;8305;-33.882;151.134;2023-08-21T05:56:19;1.60;;;0.85;;
16391;SDS011;8305;-33.882;151.134;2023-08-21T05:58:50;2.47;;;0.93;;
16391;SDS011;8305;-33.882;151.134;2023-08-21T06:01:21;1.42;;;0.90;;
16391;SDS011;8305;-33.882;151.134;2023-08-21T06:03:51;2.08;;;0.77;;
16391;SDS011;8305;-33.882;151.134;2023-08-21T06:06:22;1.10;;;0.95;;
16391;SDS011;8305;-33.882;151.134;2023-08-21T06:08:53;1.85;;;0.95;;
16391;SDS011;8305;-33.882;151.134;2023-08-21T06:11:25;2.05;;;0.80;;
16391;SDS011;8305;-33.882;151.134;2023-08-21T06:13:56;1.88;;;1.00;;
16391;SDS011;8305;-33.882;151.134;2023-08-21T06:16:27;2.10;;;1.00;;
16391;SDS011;8305;-33.882;151.134;2023-08-21T06:18:58;1.70;;;0.68;;
16391;SDS011;8305;-33.882;151.134;2023-08-21T06:21:28;3.33;;;0.70;;
16391;SDS011;8305;-33.882;151.134;2023-08-21T06:23:59;1.42;;;0.70;;
16391;SDS011;8305;-33.882;151.134;2023-08-21T06:26:31;3.60;;;1.10;;
16391;SDS011;8305;-33.882;151.134;2023-08-21T06:29:02;1.23;;;0.80;;
16391;SDS011;8305;-33.882;151.134;2023-08-21T06:31:33;2.60;;;0.82;;
16391;SDS011;8305;-33.882;151.134;2023-08-21T06:34:04;1.30;;;0.70;;
16391;SDS011;8305;-33.882;151.134;2023-08-21T06:36:34;4.60;;;0.88;;
16391;SDS011;8305;-33.882;151.134;2023-08-21T06:39:05;3.85;;;0.98;;
16391;SDS011;8305;-33.882;151.134;2023-08-21T06:41:38;2.92;;;0.85;;
16391;SDS011;8305;-33.882;151.134;2023-08-21T06:44:08;2.22;;;0.80;;
16391;SDS011;8305;-33.882;151.134;2023-08-21T06:46:39;4.82;;;0.73;;
16391;SDS011;8305;-33.882;151.134;2023-08-21T06:49:10;1.17;;;0.80;;
16391;SDS011;8305;-33.882;151.134;2023-08-21T06:51:40;2.03;;;1.10;;
16391;SDS011;8305;-33.882;151.134;2023-08-21T06:54:11;1.10;;;0.80;;
16391;SDS011;8305;-33.882;151.134;2023-08-21T06:56:44;1.35;;;0.75;;
16391;SDS011;8305;-33.882;151.134;2023-08-21T06:59:14;1.83;;;0.80;;
16391;SDS011;8305;-33.882;151.134;2023-08-21T07:01:45;1.65;;;0.80;;
16391;SDS011;8305;-33.882;151.134;2023-08-21T07:04:16;2.58;;;0.80;;
16391;SDS011;8305;-33.882;151.134;2023-08-21T07:06:47;1.08;;;0.80;;
16391;SDS011;8305;-33.882;151.134;2023-08-21T07:09:17;1.73;;;0.90;;
16391;SDS011;8305;-33.882;151.134;2023-08-21T07:11:50;2.13;;;0.93;;
16391;SDS011;8305;-33.882;151.134;2023-08-21T07:14:21;2.67;;;1.00;;
16391;SDS011;8305;-33.882;151.134;2023-08-21T07:16:52;1.20;;;0.80;;
16391;SDS011;8305;-33.882;151.134;2023-08-21T07:19:23;2.72;;;0.95;;
16391;SDS011;8305;-33.882;151.134;2023-08-21T07:21:53;1.60;;;0.80;;
16391;SDS011;8305;-33.882;151.134;2023-08-21T07:24:24;2.22;;;1.02;;
16391;SDS011;8305;-33.882;151.134;2023-08-21T07:26:57;2.65;;;1.10;;
16391;SDS011;8305;-33.882;151.134;2023-08-21T07:29:27;1.42;;;1.10;;
16391;SDS011;8305;-33.882;151.134;2023-08-21T07:31:58;1.20;;;1.10;;
16391;SDS011;8305;-33.882;151.134;2023-08-21T07:34:30;3.70;;;1.10;;
16391;SDS011;8305;-33.882;151.134;2023-08-21T07:37:01;2.13;;;1.35;;
16391;SDS011;8305;-33.882;151.134;2023-08-21T07:39:32;3.45;;;1.30;;
16391;SDS011;8305;-33.882;151.134;2023-08-21T07:42:04;2.53;;;1.10;;
16391;SDS011;8305;-33.882;151.134;2023-08-21T07:44:35;1.88;;;1.10;;
16391;SDS011;8305;-33.882;151.134;2023-08-21T07:47:06;5.80;;;3.00;;
16391;SDS011;8305;-33.882;151.134;2023-08-21T07:49:37;6.53;;;4.22;;
16391;SDS011;8305;-33.882;151.134;2023-08-21T07:52:07;4.75;;;3.00;;
16391;SDS011;8305;-33.882;151.134;2023-08-21T07:54:38;1.98;;;1.35;;
16391;SDS011;8305;-33.882;151.134;2023-08-21T07:57:11;1.67;;;1.10;;
16391;SDS011;8305;-33.882;151.134;2023-08-21T07:59:42;1.33;;;1.00;;
16391;SDS011;8305;-33.882;151.134;2023-08-21T08:02:12;1.75;;;1.23;;
16391;SDS011;8305;-33.882;151.134;2023-08-21T08:04:43;4.13;;;1.30;;
16391;SDS011;8305;-33.882;151.134;2023-08-21T08:07:14;1.85;;;1.38;;
16391;SDS011;8305;-33.882;151.134;2023-08-21T08:09:44;1.55;;;1.10;;
16391;SDS011;8305;-33.882;151.134;2023-08-21T08:12:17;3.85;;;1.50;;
16391;SDS011;8305;-33.882;151.134;2023-08-21T08:14:48;2.85;;;1.38;;
16391;SDS011;8305;-33.882;151.134;2023-08-21T08:17:19;2.25;;;1.77;;
16391;SDS011;8305;-33.882;151.134;2023-08-21T08:19:49;1.98;;;1.40;;
16391;SDS011;8305;-33.882;151.134;2023-08-21T08:22:20;2.70;;;1.20;;
16391;SDS011;8305;-33.882;151.134;2023-08-21T08:24:51;1.70;;;1.35;;
16391;SDS011;8305;-33.882;151.134;2023-08-21T08:27:24;1.98;;;1.20;;
16391;SDS011;8305;-33.882;151.134;2023-08-21T08:29:55;2.00;;;1.00;;
16391;SDS011;8305;-33.882;151.134;2023-08-21T08:32:26;1.77;;;1.13;;
16391;SDS011;8305;-33.882;151.134;2023-08-21T08:34:57;1.40;;;1.23;;
16391;SDS011;8305;-33.882;151.134;2023-08-21T08:37:27;1.88;;;1.05;;
16391;SDS011;8305;-33.882;151.134;2023-08-21T08:39:58;2.00;;;1.13;;
16391;SDS011;8305;-33.882;151.134;2023-08-21T08:42:31;2.63;;;1.40;;
16391;SDS011;8305;-33.882;151.134;2023-08-21T08:45:03;1.90;;;1.23;;
16391;SDS011;8305;-33.882;151.134;2023-08-21T08:47:34;1.20;;;1.10;;
16391;SDS011;8305;-33.882;151.134;2023-08-21T08:50:05;1.77;;;1.17;;
16391;SDS011;8305;-33.882;151.134;2023-08-21T08:52:39;1.60;;;1.23;;
16391;SDS011;8305;-33.882;151.134;2023-08-21T08:55:11;2.25;;;1.00;;
16391;SDS011;8305;-33.882;151.134;2023-08-21T08:57:43;2.70;;;1.20;;
16391;SDS011;8305;-33.882;151.134;2023-08-21T09:00:14;1.73;;;1.00;;
16391;SDS011;8305;-33.882;151.134;2023-08-21T09:02:46;3.42;;;1.20;;
16391;SDS011;8305;-33.882;151.134;2023-08-21T09:05:16;2.60;;;1.40;;
16391;SDS011;8305;-33.882;151.134;2023-08-21T09:07:48;1.35;;;1.10;;
16391;SDS011;8305;-33.882;151.134;2023-08-21T09:10:32;1.40;;;1.10;;
16391;SDS011;8305;-33.882;151.134;2023-08-21T09:13:10;1.75;;;1.10;;
16391;SDS011;8305;-33.882;151.134;2023-08-21T09:15:42;1.60;;;1.10;;
16391;SDS011;8305;-33.882;151.134;2023-08-21T09:18:14;2.60;;;1.20;;
16391;SDS011;8305;-33.882;151.134;2023-08-21T09:20:45;2.90;;;1.35;;
16391;SDS011;8305;-33.882;151.134;2023-08-21T09:23:16;1.70;;;1.10;;
16391;SDS011;8305;-33.882;151.134;2023-08-21T09:25:47;3.08;;;1.20;;
16391;SDS011;8305;-33.882;151.134;2023-08-21T09:28:22;3.72;;;1.10;;
16391;SDS011;8305;-33.882;151.134;2023-08-21T09:30:54;1.42;;;1.30;;
16391;SDS011;8305;-33.882;151.134;2023-08-21T09:33:25;2.20;;;1.20;;
16391;SDS011;8305;-33.882;151.134;2023-08-21T09:35:56;1.27;;;1.17;;
16391;SDS011;8305;-33.882;151.134;2023-08-21T09:38:27;1.98;;;1.50;;
16391;SDS011;8305;-33.882;151.134;2023-08-21T09:40:57;1.88;;;1.25;;
16391;SDS011;8305;-33.882;151.134;2023-08-21T09:43:31;2.80;;;1.13;;
16391;SDS011;8305;-33.882;151.134;2023-08-21T09:46:09;1.10;;;1.00;;
16391;SDS011;8305;-33.882;151.134;2023-08-21T09:48:44;1.50;;;1.20;;
16391;SDS011;8305;-33.882;151.134;2023-08-21T09:51:16;2.00;;;1.33;;
16391;SDS011;8305;-33.882;151.134;2023-08-21T09:53:47;1.85;;;1.58;;
16391;SDS011;8305;-33.882;151.134;2023-08-21T09:56:18;1.80;;;1.50;;
16391;SDS011;8305;-33.882;151.134;2023-08-21T09:58:50;2.65;;;1.60;;
16391;SDS011;8305;-33.882;151.134;2023-08-21T10:01:21;2.78;;;1.63;;
16391;SDS011;8305;-33.882;151.134;2023-08-21T10:03:53;2.58;;;1.50;;
16391;SDS011;8305;-33.882;151.134;2023-08-21T10:06:26;1.58;;;1.40;;
16391;SDS011;8305;-33.882;151.134;2023-08-21T10:08:57;1.42;;;1.33;;
16391;SDS011;8305;-33.882;151.134;2023-08-21T10:11:28;1.65;;;1.20;;
16391;SDS011;8305;-33.882;151.134;2023-08-21T10:14:01;2.15;;;1.55;;
16391;SDS011;8305;-33.882;151.134;2023-08-21T10:16:34;4.38;;;1.55;;
16391;SDS011;8305;-33.882;151.134;2023-08-21T10:19:04;3.08;;;1.60;;
16391;SDS011;8305;-33.882;151.134;2023-08-21T10:21:36;1.85;;;1.60;;
16391;SDS011;8305;-33.882;151.134;2023-08-21T10:24:07;1.75;;;1.25;;
16391;SDS011;8305;-33.882;151.134;2023-08-21T10:26:38;2.00;;;1.70;;
16391;SDS011;8305;-33.882;151.134;2023-08-21T10:29:10;2.13;;;1.60;;
16391;SDS011;8305;-33.882;151.134;2023-08-21T10:31:41;2.83;;;1.70;;
16391;SDS011;8305;-33.882;151.134;2023-08-21T10:34:12;2.42;;;1.75;;
16391;SDS011;8305;-33.882;151.134;2023-08-21T10:39:54;1.85;;;1.40;;
16391;SDS011;8305;-33.882;151.134;2023-08-21T10:42:38;1.70;;;1.40;;
16391;SDS011;8305;-33.882;151.134;2023-08-21T10:45:14;3.15;;;1.50;;
16391;SDS011;8305;-33.882;151.134;2023-08-21T10:47:44;2.00;;;1.30;;
16391;SDS011;8305;-33.882;151.134;2023-08-21T10:50:16;4.82;;;1.58;;
16391;SDS011;8305;-33.882;151.134;2023-08-21T10:52:47;1.80;;;1.40;;
16391;SDS011;8305;-33.882;151.134;2023-08-21T10:55:20;3.47;;;1.40;;
16391;SDS011;8305;-33.882;151.134;2023-08-21T10:57:51;2.38;;;1.63;;
16391;SDS011;8305;-33.882;151.134;2023-08-21T11:00:23;2.65;;;1.40;;
16391;SDS011;8305;-33.882;151.134;2023-08-21T11:02:54;2.28;;;1.50;;
16391;SDS011;8305;-33.882;151.134;2023-08-21T11:05:25;1.50;;;1.15;;
16391;SDS011;8305;-33.882;151.134;2023-08-21T11:07:55;1.95;;;1.33;;
16391;SDS011;8305;-33.882;151.134;2023-08-21T11:10:29;2.28;;;1.50;;
16391;SDS011;8305;-33.882;151.134;2023-08-21T11:13:01;1.60;;;1.30;;
16391;SDS011;8305;-33.882;151.134;2023-08-21T11:15:37;3.20;;;1.40;;
16391;SDS011;8305;-33.882;151.134;2023-08-21T11:18:08;1.95;;;1.17;;
16391;SDS011;8305;-33.882;151.134;2023-08-21T11:20:39;1.77;;;1.23;;
16391;SDS011;8305;-33.882;151.134;2023-08-21T11:23:11;1.80;;;1.50;;
16391;SDS011;8305;-33.882;151.134;2023-08-21T11:25:41;2.85;;;2.20;;
16391;SDS011;8305;-33.882;151.134;2023-08-21T11:28:12;2.70;;;1.77;;
16391;SDS011;8305;-33.882;151.134;2023-08-21T11:30:48;2.05;;;1.65;;
16391;SDS011;8305;-33.882;151.134;2023-08-21T11:33:19;3.83;;;1.63;;
16391;SDS011;8305;-33.882;151.134;2023-08-21T11:35:49;2.97;;;1.35;;
16391;SDS011;8305;-33.882;151.134;2023-08-21T11:38:23;2.05;;;1.20;;
16391;SDS011;8305;-33.882;151.134;2023-08-21T11:40:55;1.80;;;1.20;;
16391;SDS011;8305;-33.882;151.134;2023-08-21T11:43:36;2.10;;;1.17;;
16391;SDS011;8305;-33.882;151.134;2023-08-21T11:46:10;1.80;;;1.08;;
16391;SDS011;8305;-33.882;151.134;2023-08-21T11:48:41;1.90;;;1.20;;
16391;SDS011;8305;-33.882;151.134;2023-08-21T11:51:12;1.90;;;1.23;;
16391;SDS011;8305;-33.882;151.134;2023-08-21T11:53:42;2.03;;;1.30;;
16391;SDS011;8305;-33.882;151.134;2023-08-21T11:56:16;3.17;;;1.30;;
16391;SDS011;8305;-33.882;151.134;2023-08-21T11:58:46;2.97;;;1.50;;
16391;SDS011;8305;-33.882;151.134;2023-08-21T12:01:19;1.80;;;1.50;;
16391;SDS011;8305;-33.882;151.134;2023-08-21T12:03:51;2.95;;;1.42;;
16391;SDS011;8305;-33.882;151.134;2023-08-21T12:06:22;1.33;;;1.23;;
16391;SDS011;8305;-33.882;151.134;2023-08-21T12:08:58;1.52;;;1.20;;
16391;SDS011;8305;-33.882;151.134;2023-08-21T12:11:30;1.40;;;1.30;;
16391;SDS011;8305;-33.882;151.134;2023-08-21T12:14:01;1.55;;;1.30;;
16391;SDS011;8305;-33.882;151.134;2023-08-21T12:16:34;1.35;;;1.10;;
16391;SDS011;8305;-33.882;151.134;2023-08-21T12:19:05;1.83;;;1.38;;
16391;SDS011;8305;-33.882;151.134;2023-08-21T12:21:38;1.63;;;1.08;;
16391;SDS011;8305;-33.882;151.134;2023-08-21T12:24:09;1.92;;;1.10;;
16391;SDS011;8305;-33.882;151.134;2023-08-21T12:26:39;1.67;;;1.20;;
16391;SDS011;8305;-33.882;151.134;2023-08-21T12:29:10;2.42;;;1.40;;
16391;SDS011;8305;-33.882;151.134;2023-08-21T12:31:43;1.55;;;1.27;;
16391;SDS011;8305;-33.882;151.134;2023-08-21T12:34:14;3.22;;;2.10;;
16391;SDS011;8305;-33.882;151.134;2023-08-21T12:36:44;3.95;;;3.30;;
16391;SDS011;8305;-33.882;151.134;2023-08-21T12:39:15;4.05;;;3.00;;
16391;SDS011;8305;-33.882;151.134;2023-08-21T12:41:46;3.92;;;3.28;;
16391;SDS011;8305;-33.882;151.134;2023-08-21T12:44:17;4.95;;;3.58;;
16391;SDS011;8305;-33.882;151.134;2023-08-21T12:46:49;5.47;;;4.07;;
16391;SDS011;8305;-33.882;151.134;2023-08-21T12:49:20;9.43;;;5.70;;
16391;SDS011;8305;-33.882;151.134;2023-08-21T12:51:51;10.73;;;6.15;;
16391;SDS011;8305;-33.882;151.134;2023-08-21T12:54:22;8.30;;;5.80;;
16391;SDS011;8305;-33.882;151.134;2023-08-21T12:56:52;5.40;;;4.60;;
16391;SDS011;8305;-33.882;151.134;2023-08-21T12:59:23;5.32;;;4.30;;
16391;SDS011;8305;-33.882;151.134;2023-08-21T13:01:55;5.97;;;3.75;;
16391;SDS011;8305;-33.882;151.134;2023-08-21T13:04:27;5.35;;;3.90;;
16391;SDS011;8305;-33.882;151.134;2023-08-21T13:06:58;6.22;;;3.35;;
16391;SDS011;8305;-33.882;151.134;2023-08-21T13:09:29;3.90;;;2.72;;
16391;SDS011;8305;-33.882;151.134;2023-08-21T13:12:01;3.33;;;2.55;;
16391;SDS011;8305;-33.882;151.134;2023-08-21T13:14:31;3.28;;;2.15;;
16391;SDS011;8305;-33.882;151.134;2023-08-21T13:17:04;2.78;;;2.20;;
16391;SDS011;8305;-33.882;151.134;2023-08-21T13:19:35;3.63;;;2.38;;
16391;SDS011;8305;-33.882;151.134;2023-08-21T13:22:05;4.82;;;2.50;;
16391;SDS011;8305;-33.882;151.134;2023-08-21T13:24:36;2.50;;;2.00;;
16391;SDS011;8305;-33.882;151.134;2023-08-21T13:27:07;3.00;;;2.10;;
16391;SDS011;8305;-33.882;151.134;2023-08-21T13:29:38;2.63;;;2.10;;
16391;SDS011;8305;-33.882;151.134;2023-08-21T13:32:10;3.33;;;1.83;;
16391;SDS011;8305;-33.882;151.134;2023-08-21T13:34:41;2.38;;;1.70;;
16391;SDS011;8305;-33.882;151.134;2023-08-21T13:37:11;2.42;;;1.52;;
16391;SDS011;8305;-33.882;151.134;2023-08-21T13:39:42;2.53;;;1.67;;
16391;SDS011;8305;-33.882;151.134;2023-08-21T13:42:13;1.90;;;1.40;;
16391;SDS011;8305;-33.882;151.134;2023-08-21T13:44:44;2.72;;;1.60;;
16391;SDS011;8305;-33.882;151.134;2023-08-21T13:47:16;2.60;;;1.70;;
16391;SDS011;8305;-33.882;151.134;2023-08-21T13:49:47;1.88;;;1.60;;
16391;SDS011;8305;-33.882;151.134;2023-08-21T13:52:18;2.35;;;1.60;;
16391;SDS011;8305;-33.882;151.134;2023-08-21T13:54:49;2.17;;;1.83;;
16391;SDS011;8305;-33.882;151.134;2023-08-21T13:57:19;4.85;;;2.00;;
16391;SDS011;8305;-33.882;151.134;2023-08-21T13:59:50;3.00;;;1.88;;
16391;SDS011;8305;-33.882;151.134;2023-08-21T14:02:23;2.13;;;1.92;;
16391;SDS011;8305;-33.882;151.134;2023-08-21T14:04:54;2.40;;;1.70;;
16391;SDS011;8305;-33.882;151.134;2023-08-21T14:07:24;2.50;;;1.70;;
16391;SDS011;8305;-33.882;151.134;2023-08-21T14:09:55;2.72;;;2.10;;
16391;SDS011;8305;-33.882;151.134;2023-08-21T14:12:27;2.13;;;1.80;;
16391;SDS011;8305;-33.882;151.134;2023-08-21T14:14:58;4.63;;;1.90;;
16391;SDS011;8305;-33.882;151.134;2023-08-21T14:17:31;2.72;;;1.90;;
16391;SDS011;8305;-33.882;151.134;2023-08-21T14:20:02;3.45;;;2.20;;
16391;SDS011;8305;-33.882;151.134;2023-08-21T14:22:33;5.88;;;2.10;;
16391;SDS011;8305;-33.882;151.134;2023-08-21T14:25:04;4.25;;;2.08;;
16391;SDS011;8305;-33.882;151.134;2023-08-21T14:27:35;3.53;;;2.00;;
16391;SDS011;8305;-33.882;151.134;2023-08-21T14:30:06;2.95;;;2.20;;
16391;SDS011;8305;-33.882;151.134;2023-08-21T14:32:39;3.33;;;2.10;;
16391;SDS011;8305;-33.882;151.134;2023-08-21T14:35:10;2.08;;;1.80;;
16391;SDS011;8305;-33.882;151.134;2023-08-21T14:37:41;2.75;;;1.90;;
16391;SDS011;8305;-33.882;151.134;2023-08-21T14:40:12;2.95;;;1.90;;
16391;SDS011;8305;-33.882;151.134;2023-08-21T14:42:43;3.47;;;2.00;;
16391;SDS011;8305;-33.882;151.134;2023-08-21T14:45:13;3.38;;;1.95;;
16391;SDS011;8305;-33.882;151.134;2023-08-21T14:47:46;3.67;;;1.90;;